Date,TemperatureHighF,TemperatureAvgF,TemperatureLowF,DewpointHighF,DewpointAvgF,DewpointLowF,HumidityHigh,HumidityAvg,HumidityLow,PressureMaxIn,PressureMinIn,WindSpeedMaxMPH,WindSpeedAvgMPH,GustSpeedMaxMPH,PrecipitationSumIn
2014-1-1,28.5,-2.0,-17.8,7.1,-18.6,-34.5,59,44,35,30.24,29.88,0,0,0,0.00
2014-1-2,-1.6,-7.0,-11.7,-16.9,-21.9,-26.2,47,47,47,30.30,29.82,0,0,0,0.00
2014-1-3,-0.9,-7.5,-15.4,-16.4,-22.4,-29.7,47,47,47,30.09,29.65,0,0,0,0.00
2014-1-4,24.0,-3.3,-22.5,4.6,-17.9,-36.2,53,49,39,30.21,29.94,0,0,0,0.00
2014-1-5,39.3,15.3,-4.8,21.4,3.0,-17.6,87,59,33,30.09,29.91,1,0,1,0.00
2014-1-6,49.5,40.2,24.7,49.0,38.2,11.5,98,93,47,29.91,29.00,23,4,23,0.00
2014-1-7,30.1,15.3,4.2,10.9,-8.8,-22.4,73,34,25,29.79,29.12,35,9,35,0.00
2014-1-8,24.9,9.2,0.0,-1.5,-14.9,-24.4,39,32,27,30.18,29.79,15,3,15,0.00
2014-1-9,23.8,9.2,-0.5,4.7,-10.9,-19.2,60,39,32,30.39,30.12,20,3,20,0.00
2014-1-10,28.8,12.7,-4.5,16.9,0.5,-20.4,82,58,45,30.39,30.06,8,2,8,0.00
2014-1-11,49.0,25.2,19.7,48.5,21.6,15.1,98,86,82,30.06,29.00,1,0,1,0.00
2014-1-12,48.8,41.8,34.4,48.3,29.6,16.2,98,66,38,29.62,28.97,0,0,0,0.00
2014-1-13,53.1,36.3,26.9,34.9,22.6,16.2,88,60,29,29.85,29.62,10,2,10,0.00
2014-1-14,47.2,41.5,35.7,45.9,40.5,33.0,98,96,91,29.71,29.35,10,2,10,0.00
2014-1-15,53.9,36.2,28.5,46.2,32.1,26.3,98,87,40,29.82,29.35,13,2,13,0.00
2014-1-16,36.4,32.9,29.0,35.9,32.2,28.4,98,97,93,29.76,29.68,9,1,9,0.00
2014-1-17,45.8,33.3,26.3,44.2,30.5,24.3,98,90,53,29.76,29.65,8,1,8,0.00
2014-1-18,26.3,26.3,26.3,24.6,24.6,24.6,93,93,93,29.74,29.44,6,1,6,0.00
2014-1-19,26.3,26.3,26.3,24.6,24.6,24.6,93,93,93,29.50,29.17,13,1,13,0.00
2014-1-20,26.3,26.3,26.3,24.6,24.6,24.6,93,93,93,29.62,29.23,19,4,19,0.00
2014-1-21,26.3,26.3,26.3,24.6,24.6,24.6,93,93,93,29.85,29.62,15,4,15,0.00
2014-1-22,26.3,26.3,26.3,24.6,24.6,24.6,93,93,93,29.79,29.38,20,8,20,0.00
2014-1-23,26.3,26.3,26.3,24.6,24.6,24.6,93,93,93,30.00,29.59,18,5,18,0.00
2014-1-24,51.7,15.6,-5.8,24.6,1.7,-33.2,93,61,18,30.12,30.00,14,3,14,0.00
2014-1-25,37.6,24.0,-5.4,32.9,11.3,-33.1,98,62,24,30.00,29.17,14,3,14,0.00
2014-1-26,30.6,14.7,4.1,26.9,-5.0,-23.2,86,44,26,29.85,29.12,25,6,25,0.00
2014-1-27,46.8,25.8,9.5,39.0,9.8,-18.5,90,53,26,29.88,29.38,30,5,30,0.00
2014-1-28,21.7,11.4,1.9,-8.8,-15.2,-21.4,34,28,23,30.21,29.88,24,4,24,0.00
2014-1-29,33.8,14.9,5.5,4.4,-11.9,-21.4,46,29,23,30.18,29.82,10,2,10,0.00
2014-1-30,36.1,16.5,3.9,5.0,-4.6,-17.6,54,39,25,30.36,30.06,10,2,10,0.00
2014-1-31,43.9,27.8,10.4,20.4,10.2,-2.9,77,49,28,30.12,29.88,9,2,9,0.00
2014-2-1,46.0,29.0,16.5,30.6,16.6,8.9,91,63,29,30.30,30.00,6,2,6,0.00
2014-2-2,39.9,35.0,30.9,36.5,32.1,26.4,98,89,80,30.00,29.79,5,0,5,0.00
2014-2-3,32.9,26.9,12.9,27.6,10.5,4.2,83,51,39,30.27,30.00,15,3,15,0.00
2014-2-4,37.4,18.6,5.9,17.7,4.0,-1.2,78,56,30,30.41,30.24,10,2,10,0.00
2014-2-5,23.5,20.1,15.8,14.6,10.3,3.6,82,66,48,30.39,29.74,11,3,11,0.00
2014-2-6,30.7,11.4,-5.6,7.4,-3.9,-19.5,70,52,31,30.21,29.88,10,2,10,0.00
2014-2-7,36.1,10.1,-10.1,15.7,-9.6,-25.2,78,41,27,30.12,30.00,17,3,17,0.00
2014-2-8,31.1,11.7,-8.7,3.1,-8.8,-25.6,54,39,28,30.18,30.06,13,3,14,0.00
2014-2-9,42.4,17.6,0.9,9.4,-2.0,-13.6,58,43,22,30.15,29.97,8,1,8,0.00
2014-2-10,31.1,16.9,-2.0,13.0,1.5,-18.6,79,52,34,30.12,29.88,14,3,14,0.00
2014-2-11,30.0,7.7,-9.6,5.4,-13.9,-25.5,55,36,25,30.33,30.12,20,5,20,0.00
2014-2-12,39.2,9.6,-7.6,2.3,-15.2,-28.5,35,31,20,30.47,30.30,11,2,11,0.00
2014-2-13,34.0,22.1,-1.8,32.6,10.4,-23.0,98,64,35,30.39,29.23,12,2,12,0.00
2014-2-14,35.4,30.7,14.4,34.7,24.4,3.5,98,79,47,29.59,28.67,25,6,25,0.00
2014-2-15,44.4,24.0,6.1,28.0,12.8,-3.0,92,65,35,29.88,29.41,14,2,14,0.00
2014-2-16,34.2,21.4,8.4,20.3,5.9,-8.5,90,53,31,29.82,29.29,28,10,28,0.00
2014-2-17,28.8,13.2,-6.3,-2.6,-9.8,-28.5,45,35,25,30.30,29.82,26,7,26,0.00
2014-2-18,34.5,12.3,-15.2,25.4,-3.5,-36.4,95,51,32,30.36,29.88,16,2,16,0.00
2014-2-19,50.2,29.9,9.0,32.4,22.0,5.2,98,75,34,30.03,29.68,12,2,12,0.00
2014-2-20,55.8,37.1,23.4,43.6,23.5,11.4,98,65,26,30.18,29.71,25,3,25,0.00
2014-2-21,36.0,34.3,30.7,33.8,30.6,22.8,93,86,66,30.21,29.59,11,1,11,0.00
2014-2-22,35.6,35.6,35.6,33.8,33.8,33.8,93,93,93,29.85,29.68,11,2,11,0.00
2014-2-23,48.6,34.3,20.5,33.8,21.1,12.8,96,62,28,29.91,29.71,7,1,7,0.00
2014-2-24,38.5,27.8,15.1,25.5,6.6,-7.0,88,43,24,29.79,29.59,26,7,26,0.00
2014-2-25,31.6,16.0,5.0,0.1,-6.6,-14.0,42,36,25,29.88,29.76,14,4,15,0.00
2014-2-26,33.6,14.1,-2.2,15.4,-3.7,-20.4,84,45,31,29.88,29.68,12,2,12,0.00
2014-2-27,40.6,9.7,-9.6,7.9,-8.5,-25.1,64,44,21,29.82,29.59,8,2,8,0.00
2014-2-28,25.3,13.3,0.3,-0.5,-10.0,-25.8,53,36,24,30.41,29.65,20,6,20,0.00
2014-3-1,46.0,18.4,-6.5,16.2,-3.7,-31.7,56,38,27,30.44,30.00,12,2,12,0.00
2014-3-2,31.8,26.6,10.0,14.9,4.3,-10.5,52,38,28,30.00,29.91,13,3,13,0.00
2014-3-3,24.1,12.9,-0.6,-7.4,-12.7,-26.5,38,31,24,30.24,29.94,20,6,20,0.00
2014-3-4,37.9,13.8,-9.2,1.6,-14.5,-34.1,42,27,19,30.33,30.18,10,2,10,0.00
2014-3-5,26.1,12.9,0.7,1.0,-8.5,-24.1,56,39,27,30.44,30.24,15,4,15,0.00
2014-3-6,32.9,13.7,-4.0,-3.8,-15.4,-28.2,29,26,20,30.56,30.44,13,3,15,0.00
2014-3-7,52.7,20.4,-3.5,16.9,-2.0,-27.8,77,39,21,30.47,29.97,12,2,12,0.00
2014-3-8,55.6,31.6,11.8,35.2,13.3,5.8,90,52,22,29.97,29.65,18,4,18,0.00
2014-3-9,38.7,26.7,14.5,7.2,0.3,-8.8,54,33,22,29.88,29.76,20,5,20,0.00
2014-3-10,48.9,27.9,18.7,19.9,8.0,-5.9,71,44,24,29.85,29.65,6,2,6,0.00
2014-3-11,48.4,36.9,29.3,39.9,27.6,18.5,98,71,48,29.71,29.47,12,3,12,0.00
2014-3-12,43.0,31.4,23.2,33.5,26.8,19.5,98,84,56,29.71,29.14,17,2,17,0.00
2014-3-13,23.5,16.1,10.0,20.8,7.3,-0.1,89,68,49,29.76,29.06,22,9,22,0.00
2014-3-14,50.4,21.4,-6.5,18.2,2.2,-14.6,67,48,19,30.06,29.74,10,3,10,0.00
2014-3-15,55.4,38.4,29.1,39.1,29.4,17.5,98,72,46,29.88,29.59,15,2,15,0.00
2014-3-16,33.4,23.3,8.4,32.6,-1.0,-17.6,98,37,23,30.15,29.68,30,10,30,0.00
2014-3-17,25.3,13.3,0.5,-6.6,-14.6,-24.3,31,27,22,30.15,30.00,18,4,18,0.00
2014-3-18,39.7,20.6,2.7,5.1,-7.0,-23.7,59,30,21,30.36,30.12,15,3,15,0.00
2014-3-19,54.5,29.5,9.3,20.7,9.7,-1.4,72,47,18,30.39,30.03,7,2,7,0.00
2014-3-20,47.1,36.5,30.7,43.7,32.0,18.6,98,84,59,30.09,29.44,15,2,15,0.00
2014-3-21,44.6,35.6,30.0,30.5,17.3,10.1,96,51,29,29.91,29.59,26,6,26,0.00
2014-3-22,33.8,33.8,33.8,12.6,12.6,12.6,41,41,41,29.97,29.59,14,2,14,0.00
2014-3-23,42.1,35.9,32.9,24.2,7.9,3.0,70,32,23,30.06,29.82,23,6,23,0.00
2014-3-24,36.3,32.2,0.0,3.0,2.7,0.0,24,21,24,30.09,29.94,24,7,24,0.00
2014-3-25,0.0,0.0,0.0,0.0,0.0,0.0,0,0,100,30.12,29.97,13,2,13,0.00
2014-3-26,0.0,0.0,0.0,0.0,0.0,0.0,0,0,100,30.03,29.41,36,10,36,0.00
2014-3-27,0.0,0.0,0.0,0.0,0.0,0.0,0,0,100,30.21,29.68,31,6,31,0.00
2014-3-28,0.0,0.0,0.0,0.0,0.0,0.0,0,0,100,30.18,29.85,11,2,11,0.00
2014-3-29,0.0,0.0,0.0,0.0,0.0,0.0,0,0,100,30.24,29.94,13,2,13,0.00
2014-3-30,0.0,0.0,0.0,0.0,0.0,0.0,0,0,100,30.15,29.74,18,4,18,0.00
2014-3-31,0.0,0.0,0.0,0.0,0.0,0.0,0,0,100,29.97,29.71,25,9,25,0.00
2014-4-1,0.0,0.0,0.0,0.0,0.0,0.0,0,0,100,30.09,29.94,24,6,24,0.00
2014-4-2,0.0,0.0,0.0,0.0,0.0,0.0,0,0,100,30.09,30.06,6,1,6,0.00
2014-4-8,0.0,0.0,0.0,0.0,0.0,0.0,0,0,100,30.09,29.23,16,2,16,0.00
2014-4-9,0.0,0.0,0.0,0.0,0.0,0.0,0,0,100,29.88,29.35,24,7,24,0.00
2014-4-10,0.0,0.0,0.0,0.0,0.0,0.0,0,0,100,30.09,29.88,14,3,14,0.00
2014-4-11,0.0,0.0,0.0,0.0,0.0,0.0,0,0,100,30.00,29.82,15,3,15,0.00
2014-4-12,0.0,0.0,0.0,0.0,0.0,0.0,0,0,100,30.06,29.94,20,4,20,0.00
2014-4-13,50.9,40.4,0.0,49.2,38.7,0.0,98,91,55,30.27,30.00,4,1,10,0.00
2014-4-14,70.7,55.7,41.2,51.5,44.8,40.7,98,71,40,30.00,29.79,17,3,17,0.00
2014-4-15,60.6,57.2,46.8,57.5,54.9,45.7,98,92,75,29.88,29.53,20,5,20,0.50
2014-4-16,46.8,34.2,26.8,45.0,17.5,3.9,98,55,24,30.62,29.62,26,11,26,0.16
2014-4-17,50.7,34.6,20.1,17.6,11.7,5.0,71,42,19,30.83,30.53,11,3,11,0.34
2014-4-18,55.8,37.3,22.5,37.8,23.4,17.8,96,63,27,30.68,30.21,6,2,7,0.00
2014-4-19,54.1,40.0,27.1,37.5,25.2,14.9,98,61,30,30.36,30.06,25,6,25,0.00
2014-4-20,63.1,43.3,25.2,30.6,19.0,13.4,88,44,17,30.50,30.33,10,2,10,0.00
2014-4-21,68.5,53.2,33.1,37.6,27.7,21.9,87,41,21,30.30,29.79,12,2,12,0.00
2014-4-22,65.8,50.1,38.1,46.9,38.6,33.9,98,70,34,29.82,29.56,7,2,7,0.00
2014-4-23,59.7,50.6,41.0,50.5,36.5,26.8,98,61,41,29.50,29.38,28,8,28,0.00
2014-4-24,48.7,43.5,38.8,39.0,30.4,25.0,98,61,40,29.79,29.44,32,12,32,0.21
2014-4-25,61.3,49.4,34.5,37.3,26.3,16.4,92,48,19,29.91,29.79,22,6,22,0.00
2014-4-26,53.2,43.7,39.6,39.9,37.9,32.1,98,82,48,29.88,29.82,4,2,4,0.21
2014-4-27,52.2,44.7,38.5,40.7,34.9,27.0,98,72,40,29.97,29.82,16,4,16,0.46
2014-4-28,51.4,45.5,39.9,37.8,32.1,26.6,86,60,46,30.30,29.94,20,6,20,0.00
2014-4-29,60.8,46.0,35.8,31.0,27.3,22.3,79,51,25,30.56,30.30,15,3,15,0.46
2014-4-30,50.7,41.0,35.8,35.6,29.9,26.2,88,65,44,30.59,30.27,6,2,6,0.00
2014-5-1,51.1,44.8,38.7,50.5,44.2,35.6,98,98,88,30.27,29.65,7,1,7,0.41
2014-5-2,70.5,54.8,41.2,57.0,42.8,32.5,98,69,33,29.76,29.59,12,2,13,0.04
2014-5-3,73.6,52.0,38.1,46.2,36.9,28.2,98,64,23,29.79,29.71,9,2,9,0.00
2014-5-4,58.8,47.2,42.3,53.2,45.2,33.0,98,93,45,29.74,29.41,13,2,13,0.41
2014-5-5,62.2,51.7,43.9,45.9,37.9,26.0,98,64,28,29.76,29.50,15,7,15,0.41
2014-5-6,63.3,51.0,37.4,46.8,35.6,28.4,98,59,29,29.94,29.74,15,5,15,0.41
2014-5-7,68.4,53.7,38.7,41.9,32.1,22.8,94,50,20,30.15,29.94,12,3,12,0.41
2014-5-8,72.0,54.7,36.7,42.5,28.4,20.1,98,46,17,30.24,30.06,18,3,18,0.41
2014-5-9,72.1,51.4,35.2,42.2,31.2,22.8,80,51,19,30.27,30.09,6,2,6,0.41
2014-5-10,68.2,55.0,48.7,60.5,52.2,42.2,98,91,66,30.09,29.65,2,2,2,0.41
2014-5-11,74.5,62.3,50.4,55.8,37.2,26.3,98,47,18,29.97,29.65,24,6,24,0.00
2014-5-12,72.0,55.4,43.3,49.0,40.9,36.2,95,63,32,30.18,29.94,8,2,8,0.41
2014-5-13,68.7,50.6,40.1,42.2,34.1,0.0,94,61,23,30.33,30.18,9,2,9,0.00
2014-9-5,86.7,68.6,62.6,64.2,60.8,27.3,95,79,26,30.27,29.85,3,0,4,0.17
2014-9-6,95.5,75.1,62.8,77.5,67.5,56.4,98,81,40,29.85,29.65,5,0,5,20.48
2014-9-7,84.0,64.3,53.2,62.2,52.2,40.5,98,72,23,30.15,29.85,6,1,6,0.00
2014-9-8,85.1,59.6,47.5,56.7,44.8,32.6,98,67,20,30.39,30.15,3,0,3,0.00
2014-9-9,80.4,56.6,42.1,55.4,43.9,36.5,98,70,22,30.39,30.21,3,0,3,0.00
2014-9-10,84.4,59.9,46.2,66.0,50.5,44.1,98,78,26,30.21,30.00,3,0,4,0.00
2014-9-11,70.9,59.7,54.9,63.8,57.3,53.7,98,93,68,30.03,29.82,5,1,6,0.00
2014-9-14,73.8,57.3,41.4,60.0,39.3,35.6,93,55,29,30.18,29.79,8,1,8,0.00
2014-9-15,73.0,51.8,39.7,46.1,39.3,31.4,97,70,23,30.21,30.06,7,0,7,0.00
2014-9-16,65.7,54.8,48.4,57.9,51.0,45.4,98,88,60,30.09,29.88,4,0,4,0.04
2014-9-17,81.5,57.8,46.8,60.5,47.0,38.3,98,74,24,29.97,29.88,5,0,5,0.00
2014-9-18,75.7,54.7,42.4,61.2,42.9,28.2,98,69,32,30.12,29.85,7,1,7,0.00
2014-9-19,69.1,46.6,34.5,35.8,28.5,18.4,87,55,17,30.39,30.12,20,0,20,0.00
2014-9-20,68.2,50.1,32.7,55.1,41.2,29.0,96,74,37,30.36,30.00,8,1,8,0.00
2014-9-21,76.1,61.6,54.1,69.8,60.2,53.0,98,95,61,30.03,29.53,4,0,4,0.04
2014-9-22,79.3,62.8,47.7,70.1,50.9,31.9,98,70,29,29.97,29.44,10,1,10,0.00
2014-9-23,74.5,53.0,38.8,45.9,39.1,32.4,94,64,26,30.36,29.97,7,1,7,0.00
2014-9-24,76.6,52.7,41.4,54.4,41.5,33.6,98,73,24,30.62,30.36,4,0,4,0.00
2014-9-25,42.3,41.2,41.2,39.2,39.0,38.8,92,92,88,30.53,30.21,3,0,3,0.00
2014-9-26,63.9,54.6,41.2,63.3,53.4,39.0,98,96,92,30.21,30.06,4,0,4,0.00
2014-9-27,82.6,63.9,56.1,63.3,59.5,44.2,98,88,30,30.12,30.06,5,0,5,0.00
2014-9-28,92.5,66.4,51.8,69.0,56.1,50.8,98,77,27,30.12,29.88,3,0,3,0.00
2014-9-29,71.6,58.6,51.4,65.1,55.0,50.3,98,89,66,30.09,29.88,4,0,4,20.73
2014-9-30,61.2,53.7,49.5,57.4,52.2,48.9,98,95,82,30.09,30.00,3,0,4,0.08
2014-10-1,63.1,56.8,52.5,56.9,53.6,51.2,98,90,68,30.15,30.03,4,0,4,0.00
2014-10-2,73.9,56.6,46.2,52.8,45.4,34.8,96,72,28,30.21,30.12,6,0,6,0.00
2014-10-3,77.5,55.9,42.6,51.5,45.3,37.8,98,73,26,30.15,29.91,4,0,4,0.00
2014-10-4,63.0,58.7,55.6,60.1,57.1,51.5,98,94,85,29.91,29.62,4,0,4,0.33
2014-10-5,70.5,59.1,46.0,64.9,53.8,41.2,98,85,44,29.88,29.53,4,0,8,0.79
2014-10-6,73.2,51.2,38.1,57.3,38.9,27.7,98,71,22,30.18,29.88,6,0,7,21.93
2014-10-7,68.2,56.0,41.7,59.4,49.5,39.8,98,81,45,30.18,30.00,10,2,10,0.00
2014-10-8,74.8,61.7,51.1,64.0,57.1,47.4,98,86,50,30.00,29.59,8,0,8,0.54
2014-10-9,70.3,52.4,42.1,50.3,37.2,26.0,97,63,22,29.88,29.71,6,0,6,0.00
2014-10-10,70.3,49.9,37.9,40.9,32.3,23.7,93,57,22,30.09,29.88,7,1,7,0.00
2014-10-11,58.8,43.6,36.7,46.4,38.1,33.6,96,83,47,30.12,30.00,2,0,2,0.00
2014-10-12,68.7,46.4,34.9,49.7,33.7,23.2,98,69,23,30.24,30.06,5,1,5,0.00
2014-10-13,73.8,49.9,33.4,52.7,37.3,28.4,98,69,22,30.30,30.18,8,0,8,0.00
2014-10-14,51.4,51.4,51.4,47.1,47.1,47.1,85,85,85,30.21,30.06,6,0,6,0.00
2014-10-15,51.4,51.4,51.4,47.1,47.1,47.1,85,85,85,30.12,30.06,6,1,6,0.00
2014-10-18,0.0,0.0,0.0,0.0,0.0,0.0,0,0,100,30.09,29.41,6,2,6,1.99
2014-10-19,0.0,0.0,0.0,0.0,0.0,0.0,0,0,100,29.82,29.50,4,1,4,1.99
2014-10-20,0.0,0.0,0.0,0.0,0.0,0.0,0,0,100,29.85,29.76,5,1,5,0.00
2014-10-22,62.2,47.3,46.4,60.1,46.5,44.5,98,97,82,30.12,29.88,8,1,8,1.20
2014-10-23,51.3,49.3,46.6,50.7,48.7,46.0,98,98,98,30.03,29.68,7,1,7,1.66
2014-10-24,48.7,46.6,44.1,48.0,46.0,43.5,98,98,95,29.68,29.59,4,0,5,0.00
2014-10-25,65.8,55.7,40.8,51.7,35.1,26.7,98,58,23,29.65,29.44,4,0,4,1.20
2014-10-26,74.1,45.5,0.0,40.3,23.8,0.0,73,30,23,29.53,29.17,6,1,6,0.00
2014-10-27,48.6,48.6,48.6,40.0,40.0,40.0,72,72,72,29.74,29.53,2,2,2,0.00
2014-11-21,39.9,25.6,19.8,12.5,-1.5,-5.1,38,31,23,30.33,29.94,23,21,23,0.58
2014-11-22,36.7,26.1,12.2,7.9,2.4,-5.1,60,37,24,30.33,29.91,22,9,22,0.00
2014-11-23,54.7,39.1,30.2,31.5,21.0,4.9,98,52,27,30.18,29.91,4,3,4,0.00
2014-11-24,54.0,41.1,31.5,53.2,40.6,31.0,98,98,98,30.15,29.74,8,4,8,0.38
2014-11-26,56.8,33.8,31.5,56.3,29.2,16.2,98,86,39,30.27,29.71,11,1,11,0.54
2014-11-27,37.6,28.9,17.4,31.0,21.4,13.1,98,75,42,30.06,29.68,18,3,18,0.54
2014-11-28,32.9,21.1,12.4,20.3,11.7,3.8,92,70,31,30.15,30.03,10,2,11,0.00
2014-11-29,40.6,17.9,7.9,22.6,7.0,1.2,91,67,24,30.36,30.15,8,1,8,0.00
2014-11-30,42.4,27.3,11.7,41.9,25.0,4.7,98,91,73,30.30,30.12,6,1,6,0.00
2014-12-8,19.4,17.0,16.0,9.0,0.9,-5.8,69,49,34,30.55,29.89,3,0,5,0.01
2014-12-9,37.4,28.6,16.9,37.2,25.1,5.2,99,87,58,30.42,29.58,10,0,20,1.64
2014-12-10,37.9,36.8,35.6,37.8,36.3,34.9,99,98,97,29.58,29.21,11,1,15,0.46
2014-12-11,44.4,37.9,32.9,42.4,36.5,32.5,99,95,79,29.53,29.24,3,0,7,0.15
2014-12-12,38.3,34.1,30.9,36.7,32.4,29.3,99,93,84,29.62,29.52,3,0,5,0.00
2014-12-13,36.1,34.1,32.0,32.4,30.9,29.1,95,88,81,29.53,29.47,3,0,5,0.00
2014-12-14,39.6,34.1,29.3,31.6,29.6,27.3,99,84,70,29.63,29.50,6,0,10,0.00
2014-12-15,33.1,30.8,28.6,28.0,24.0,22.3,92,76,67,29.96,29.62,9,0,18,0.00
2014-12-16,38.3,33.4,29.5,35.2,30.2,23.2,97,88,76,29.98,29.79,0,0,2,0.06
2014-12-17,42.1,37.5,33.8,41.9,37.0,33.1,99,98,96,29.79,29.36,8,0,10,1.04
2014-12-18,34.3,32.8,31.1,33.1,29.8,23.7,98,89,72,29.53,29.35,9,1,15,0.04
2014-12-19,32.0,28.6,23.2,24.1,20.1,15.4,78,70,61,29.93,29.53,9,1,15,0.00
2014-12-20,24.6,23.0,19.2,18.0,15.3,11.1,77,72,65,30.15,29.92,5,0,7,0.00
2014-12-21,33.4,27.6,24.1,25.7,21.9,17.6,89,79,68,30.18,30.10,6,0,7,0.00
2014-12-22,36.5,31.2,26.8,30.4,26.4,23.5,94,83,63,30.23,30.16,4,0,7,0.01
2014-12-23,36.1,33.9,30.4,34.2,32.3,29.1,95,94,91,30.20,30.02,3,0,5,0.13
2014-12-24,47.5,36.8,34.2,47.3,35.9,32.5,99,97,94,30.04,29.35,3,0,7,0.69
2014-12-25,56.1,49.5,41.2,55.8,42.0,23.7,99,78,46,29.57,29.16,21,3,25,0.41
2014-12-26,45.3,37.6,29.7,27.7,24.6,21.0,88,61,39,29.86,29.56,31,4,37,0.00
2014-12-27,45.5,34.8,28.0,32.2,27.4,25.2,94,76,48,29.93,29.73,15,1,18,0.00
2014-12-28,44.6,38.9,31.6,41.9,33.0,13.5,99,81,39,29.74,29.41,20,2,25,0.38
2014-12-29,36.0,30.0,20.5,19.4,8.8,-1.7,80,42,26,29.97,29.68,25,5,30,0.00
2014-12-30,20.3,15.6,7.9,4.1,-2.8,-9.2,63,45,28,30.11,29.97,16,2,20,0.00
2014-12-31,22.3,13.6,6.8,0.9,-3.0,-8.1,68,49,29,30.04,29.83,22,2,28,0.00
2015-1-1,28.9,21.8,9.7,9.7,2.4,-2.0,67,44,27,29.84,29.60,14,1,18,0.00
2015-1-2,32.0,25.3,16.9,11.7,2.4,-10.1,63,38,26,30.21,29.60,37,7,47,0.01